Time;durP1;ratioP1;P1;durP2;ratioP2;P2;SDS_P1;SDS_P2;PMS_P1;PMS_P2;Temp;Humidity;BMP_temperature;BMP_pressure;BME280_temperature;BME280_humidity;BME280_pressure;Samples;Min_cycle;Max_cycle;Signal;HPM_P1;HPM_P2
2023/05/07 00:00:29;;;;;;;26.30;20.85;;;12.20;99.90;;;;;;5136945;27;20490;-53
2023/05/07 00:02:55;;;;;;;31.02;21.95;;;12.40;99.90;;;;;;5134551;27;20041;-52
2023/05/07 00:05:21;;;;;;;28.02;21.63;;;12.30;99.90;;;;;;5134996;27;20346;-51
2023/05/07 00:07:47;;;;;;;23.30;19.80;;;12.30;99.90;;;;;;5134401;27;20154;-52
2023/05/07 00:10:13;;;;;;;28.05;21.42;;;12.10;99.90;;;;;;5136085;27;20137;-52
2023/05/07 00:12:40;;;;;;;29.40;21.95;;;12.20;99.90;;;;;;5134121;27;20372;-52
2023/05/07 00:15:06;;;;;;;25.83;21.67;;;12.40;99.90;;;;;;5135406;27;20487;-54
2023/05/07 00:17:33;;;;;;;28.30;21.40;;;12.20;99.90;;;;;;5115159;27;20085;-53
2023/05/07 00:19:59;;;;;;;26.35;21.02;;;12.30;99.90;;;;;;5134335;27;20038;-52
2023/05/07 00:22:24;;;;;;;26.17;21.05;;;12.00;99.90;;;;;;5115432;27;20046;-52
2023/05/07 00:24:50;;;;;;;27.35;21.52;;;12.20;99.90;;;;;;5136122;27;20089;-53
2023/05/07 00:27:16;;;;;;;28.05;19.90;;;12.20;99.90;;;;;;5109951;27;20042;-51
2023/05/07 00:29:42;;;;;;;27.83;22.70;;;12.10;99.90;;;;;;5134835;27;20123;-53
2023/05/07 00:32:08;;;;;;;27.95;22.92;;;12.10;99.90;;;;;;5134563;27;20042;-50
2023/05/07 00:34:34;;;;;;;28.15;21.30;;;12.20;99.90;;;;;;5135411;27;20038;-53
2023/05/07 00:37:01;;;;;;;26.92;21.70;;;12.20;99.90;;;;;;5133356;27;20075;-53
2023/05/07 00:39:26;;;;;;;25.63;21.67;;;12.00;99.90;;;;;;5133630;27;20068;-53
2023/05/07 00:41:52;;;;;;;29.63;23.05;;;12.20;99.90;;;;;;5136237;27;20042;-52
2023/05/07 00:44:18;;;;;;;29.38;23.55;;;12.10;99.90;;;;;;5137936;27;20039;-53
2023/05/07 00:46:49;;;;;;;28.10;22.73;;;11.80;99.90;;;;;;5135287;27;20062;-52
2023/05/07 00:49:16;;;;;;;28.23;23.10;;;12.00;99.90;;;;;;5134853;27;20200;-53
2023/05/07 00:51:42;;;;;;;31.58;23.90;;;11.90;99.90;;;;;;5135119;27;20068;-52
2023/05/07 00:54:08;;;;;;;30.52;24.73;;;11.80;99.90;;;;;;5136130;27;20318;-53
2023/05/07 00:56:35;;;;;;;30.50;24.38;;;12.00;99.90;;;;;;5133949;27;20102;-52
2023/05/07 00:59:02;;;;;;;33.38;23.90;;;11.70;99.90;;;;;;5134656;27;20412;-53
2023/05/07 01:01:28;;;;;;;31.67;23.25;;;11.80;99.90;;;;;;5117056;27;20055;-53
2023/05/07 01:03:54;;;;;;;30.77;23.70;;;11.80;99.90;;;;;;5135078;27;20035;-52
2023/05/07 01:06:21;;;;;;;36.50;23.27;;;11.70;99.90;;;;;;5134096;27;20048;-50
2023/05/07 01:08:48;;;;;;;32.50;24.33;;;11.70;99.90;;;;;;5133671;27;20045;-53
2023/05/07 01:11:14;;;;;;;31.25;24.88;;;11.60;99.90;;;;;;5132900;27;21585;-50
2023/05/07 01:13:41;;;;;;;31.00;26.35;;;11.70;99.90;;;;;;5136270;27;20039;-52
2023/05/07 01:16:09;;;;;;;31.33;24.23;;;11.60;99.90;;;;;;5133705;27;20048;-52
2023/05/07 01:18:35;;;;;;;30.20;23.67;;;11.50;99.90;;;;;;5132844;27;20035;-51
2023/05/07 01:21:03;;;;;;;34.63;24.50;;;11.40;99.90;;;;;;5114111;27;20129;-51
2023/05/07 01:23:30;;;;;;;31.38;25.42;;;11.50;99.90;;;;;;5108701;27;20094;-50
2023/05/07 01:25:56;;;;;;;35.63;25.15;;;11.50;99.90;;;;;;5116153;27;20038;-54
2023/05/07 01:28:22;;;;;;;35.63;25.52;;;11.70;99.90;;;;;;5133292;27;20045;-53
2023/05/07 01:31:03;;;;;;;33.10;25.33;;;11.60;99.90;;;;;;5133728;27;20796;-52
2023/05/07 01:33:33;;;;;;;34.47;27.25;;;11.70;99.90;;;;;;5133913;27;20145;-53
2023/05/07 01:36:02;;;;;;;32.80;25.75;;;11.50;99.90;;;;;;5134572;27;20049;-49
2023/05/07 01:38:28;;;;;;;36.72;26.48;;;11.00;99.90;;;;;;5133596;27;20122;-48
2023/05/07 01:40:55;;;;;;;30.52;24.17;;;11.50;99.90;;;;;;5133427;27;20455;-50
2023/05/07 01:43:20;;;;;;;35.42;26.13;;;11.60;99.90;;;;;;5132910;27;20043;-49
2023/05/07 01:45:48;;;;;;;35.70;26.08;;;12.00;99.90;;;;;;5134963;27;20065;-57
2023/05/07 01:48:15;;;;;;;33.67;25.90;;;11.40;99.90;;;;;;5132974;27;20057;-52
2023/05/07 01:50:42;;;;;;;35.60;26.13;;;11.40;99.90;;;;;;5133378;27;20057;-51
2023/05/07 01:53:08;;;;;;;34.63;26.52;;;11.30;99.90;;;;;;5132666;27;20047;-49
2023/05/07 01:55:34;;;;;;;32.85;26.65;;;11.30;99.90;;;;;;5132894;27;20027;-52
2023/05/07 01:57:59;;;;;;;39.75;27.10;;;11.40;99.90;;;;;;5133592;27;20125;-49
2023/05/07 02:00:25;;;;;;;34.00;25.90;;;11.30;99.90;;;;;;5133128;27;20495;-54
2023/05/07 02:02:52;;;;;;;37.85;27.10;;;11.20;99.90;;;;;;5131813;27;20045;-52
2023/05/07 02:05:18;;;;;;;33.08;26.63;;;11.10;99.90;;;;;;5133477;27;21095;-49
2023/05/07 02:07:44;;;;;;;33.45;27.02;;;11.20;99.90;;;;;;5115208;27;20038;-50
2023/05/07 02:10:10;;;;;;;36.55;27.13;;;11.20;99.90;;;;;;5133167;27;20662;-49
2023/05/07 02:12:35;;;;;;;36.08;25.95;;;11.20;99.90;;;;;;5133170;27;20050;-50
2023/05/07 02:15:01;;;;;;;32.38;26.52;;;11.20;99.90;;;;;;5135580;27;20042;-49
2023/05/07 02:17:27;;;;;;;38.22;28.77;;;11.30;99.90;;;;;;5134200;27;20030;-50
2023/05/07 02:19:53;;;;;;;40.10;28.48;;;11.00;99.90;;;;;;5115212;27;20035;-48
2023/05/07 02:22:19;;;;;;;36.95;27.40;;;11.10;99.90;;;;;;5132666;27;20046;-49
2023/05/07 02:24:45;;;;;;;36.75;29.50;;;11.10;99.90;;;;;;5132148;27;20114;-50
2023/05/07 02:27:10;;;;;;;41.63;29.95;;;10.90;99.90;;;;;;5129959;27;20038;-51
2023/05/07 02:29:36;;;;;;;37.92;28.50;;;11.10;99.90;;;;;;5131377;27;20554;-48
2023/05/07 02:32:02;;;;;;;35.47;29.25;;;10.90;99.90;;;;;;5114195;27;20096;-50
2023/05/07 02:34:28;;;;;;;37.55;29.70;;;11.00;99.90;;;;;;5132462;27;20061;-53
2023/05/07 02:36:53;;;;;;;39.33;29.48;;;10.80;99.90;;;;;;5130886;27;20605;-50
2023/05/07 02:39:19;;;;;;;48.28;31.10;;;10.90;99.90;;;;;;5131239;27;20314;-49
2023/05/07 02:41:45;;;;;;;40.90;31.20;;;10.90;99.90;;;;;;5133707;27;20043;-48
2023/05/07 02:44:10;;;;;;;41.85;30.90;;;10.90;99.90;;;;;;5133296;27;20134;-48
2023/05/07 02:46:36;;;;;;;40.08;29.52;;;10.80;99.90;;;;;;5132868;27;20107;-47
2023/05/07 02:49:02;;;;;;;39.30;30.38;;;11.00;99.90;;;;;;5131573;27;20038;-50
2023/05/07 02:51:27;;;;;;;39.85;31.08;;;10.80;99.90;;;;;;5132598;27;20095;-48
2023/05/07 02:53:53;;;;;;;43.90;31.05;;;10.60;99.90;;;;;;5132387;27;20034;-50
2023/05/07 02:56:19;;;;;;;40.75;29.13;;;10.70;99.90;;;;;;5131334;27;20117;-50
2023/05/07 02:58:45;;;;;;;41.60;31.83;;;10.70;99.90;;;;;;5133545;27;20071;-52
2023/05/07 03:01:12;;;;;;;40.22;31.08;;;10.60;99.90;;;;;;5130133;27;20194;-49
2023/05/07 03:03:37;;;;;;;43.33;31.63;;;10.60;99.90;;;;;;5131773;27;20136;-50
2023/05/07 03:06:03;;;;;;;45.28;30.25;;;10.70;99.90;;;;;;5130526;27;20444;-49
2023/05/07 03:08:29;;;;;;;49.03;32.72;;;10.60;99.90;;;;;;5114110;27;20088;-50
2023/05/07 03:10:54;;;;;;;41.95;31.90;;;10.70;99.90;;;;;;5132406;27;20046;-49
2023/05/07 03:13:21;;;;;;;42.75;32.53;;;10.70;99.90;;;;;;5132715;27;20056;-52
2023/05/07 03:15:46;;;;;;;47.13;32.28;;;10.70;99.90;;;;;;5133466;27;20137;-52
2023/05/07 03:18:12;;;;;;;46.80;32.80;;;10.50;99.90;;;;;;5133787;27;20328;-53
2023/05/07 03:20:38;;;;;;;46.60;34.17;;;10.60;99.90;;;;;;5131681;27;20074;-49
2023/05/07 03:23:04;;;;;;;46.90;32.25;;;10.60;99.90;;;;;;5132418;27;20114;-51
2023/05/07 03:25:30;;;;;;;46.67;33.20;;;10.80;99.90;;;;;;5131051;27;20423;-51
2023/05/07 03:27:56;;;;;;;48.25;34.63;;;10.50;99.90;;;;;;5133749;27;20122;-54
2023/05/07 03:30:22;;;;;;;51.35;33.58;;;10.50;99.90;;;;;;5131870;27;20045;-51
2023/05/07 03:32:48;;;;;;;49.42;33.45;;;10.60;99.90;;;;;;5105276;27;20046;-50
2023/05/07 03:35:14;;;;;;;51.30;34.60;;;10.60;99.90;;;;;;5113580;27;20039;-52
2023/05/07 03:37:40;;;;;;;49.53;34.22;;;10.40;99.90;;;;;;5114644;27;20059;-50
2023/05/07 03:40:06;;;;;;;51.45;34.75;;;10.90;99.90;;;;;;5132469;27;20035;-54
2023/05/07 03:42:32;;;;;;;51.30;34.55;;;10.60;99.90;;;;;;5132121;27;20069;-50
2023/05/07 03:44:57;;;;;;;52.85;35.97;;;10.90;99.90;;;;;;5131489;27;20074;-53
2023/05/07 03:47:23;;;;;;;50.50;35.08;;;10.70;99.90;;;;;;5131376;27;20150;-52
2023/05/07 03:49:50;;;;;;;57.33;35.58;;;10.70;99.90;;;;;;5129492;27;20050;-52
2023/05/07 03:52:16;;;;;;;55.33;36.78;;;10.50;99.90;;;;;;5113618;27;20122;-52
2023/05/07 03:54:41;;;;;;;50.85;34.13;;;10.50;99.90;;;;;;5131329;27;20977;-50
2023/05/07 03:57:07;;;;;;;49.85;35.15;;;10.60;99.90;;;;;;5107525;27;20089;-49
2023/05/07 03:59:33;;;;;;;53.65;35.42;;;10.50;99.90;;;;;;5130936;27;20146;-50
2023/05/07 04:01:59;;;;;;;53.28;35.60;;;10.70;99.90;;;;;;5131098;27;20077;-51
2023/05/07 04:04:24;;;;;;;52.55;35.75;;;10.50;99.90;;;;;;5131237;27;20041;-51
2023/05/07 04:06:51;;;;;;;51.17;35.20;;;10.50;99.90;;;;;;5131405;27;20034;-51
2023/05/07 04:09:17;;;;;;;52.40;36.55;;;10.50;99.90;;;;;;5131375;27;20054;-48
2023/05/07 04:11:42;;;;;;;50.78;35.72;;;10.60;99.90;;;;;;5132196;27;20039;-51
2023/05/07 04:14:08;;;;;;;52.88;36.45;;;10.50;99.90;;;;;;5113164;27;20610;-50
2023/05/07 04:16:35;;;;;;;54.85;37.10;;;10.40;99.90;;;;;;5137753;27;20099;-50
2023/05/07 04:19:00;;;;;;;50.67;35.45;;;10.60;99.90;;;;;;5134582;27;20049;-52
2023/05/07 04:21:26;;;;;;;57.92;38.22;;;10.50;99.90;;;;;;5134820;27;20034;-50
2023/05/07 04:23:52;;;;;;;51.33;35.85;;;10.50;99.90;;;;;;5115846;27;20054;-51
2023/05/07 04:26:18;;;;;;;55.10;36.55;;;10.40;99.90;;;;;;5135276;27;20142;-51
2023/05/07 04:28:43;;;;;;;55.28;36.90;;;10.50;99.90;;;;;;5134875;27;20038;-50
2023/05/07 04:31:10;;;;;;;53.78;35.40;;;10.40;99.90;;;;;;5136578;27;20137;-50
2023/05/07 04:33:35;;;;;;;52.35;36.47;;;10.50;99.90;;;;;;5117822;27;20034;-52
2023/05/07 04:36:02;;;;;;;51.00;34.33;;;10.50;99.90;;;;;;5134612;27;20094;-49
2023/05/07 04:38:32;;;;;;;53.22;35.47;;;10.30;99.90;;;;;;5134942;27;20144;-50
2023/05/07 04:41:02;;;;;;;50.67;34.38;;;10.60;99.90;;;;;;5134888;27;20823;-51
2023/05/07 04:43:28;;;;;;;51.78;35.67;;;10.60;99.90;;;;;;5134217;27;20830;-52
2023/05/07 04:45:54;;;;;;;48.50;34.22;;;10.60;99.90;;;;;;5137244;27;20198;-54
2023/05/07 04:48:20;;;;;;;50.03;34.20;;;10.40;99.90;;;;;;5133448;27;20149;-53
2023/05/07 04:50:52;;;;;;;51.47;35.53;;;10.40;99.90;;;;;;5133239;27;20061;-47
2023/05/07 04:53:18;;;;;;;51.15;35.78;;;10.50;99.90;;;;;;5134020;27;20039;-51
2023/05/07 04:55:45;;;;;;;55.92;35.78;;;10.40;99.90;;;;;;5135008;27;20038;-53
2023/05/07 04:58:11;;;;;;;46.80;33.35;;;10.40;99.90;;;;;;5098597;27;20050;-48
2023/05/07 05:00:39;;;;;;;52.28;35.03;;;10.30;99.90;;;;;;5134865;27;20043;-52
2023/05/07 05:03:06;;;;;;;53.33;35.28;;;10.50;99.90;;;;;;5134617;27;20054;-52
2023/05/07 05:05:32;;;;;;;50.10;35.90;;;10.40;99.90;;;;;;5133246;27;20599;-49
2023/05/07 05:07:58;;;;;;;50.20;35.00;;;10.50;99.90;;;;;;5134497;27;20081;-51
2023/05/07 05:10:24;;;;;;;51.92;35.58;;;10.50;99.90;;;;;;5133886;27;20070;-53
2023/05/07 05:12:50;;;;;;;49.25;34.88;;;10.40;99.90;;;;;;5132945;27;20051;-52
2023/05/07 05:15:16;;;;;;;48.28;33.65;;;10.40;99.90;;;;;;5134561;27;20064;-51
2023/05/07 05:17:42;;;;;;;44.42;33.30;;;10.60;99.90;;;;;;5115750;27;20125;-47
2023/05/07 05:20:09;;;;;;;44.08;32.42;;;10.50;99.90;;;;;;5133202;27;20070;-51
2023/05/07 05:22:35;;;;;;;41.40;31.23;;;10.40;99.90;;;;;;5132418;27;21426;-51
2023/05/07 05:25:01;;;;;;;42.45;31.40;;;10.40;99.90;;;;;;5133286;27;20125;-51
2023/05/07 05:27:26;;;;;;;46.67;31.35;;;10.40;99.90;;;;;;5133355;27;20035;-51
2023/05/07 05:29:52;;;;;;;39.33;28.48;;;10.50;99.90;;;;;;5134007;27;20035;-53
2023/05/07 05:32:18;;;;;;;46.50;31.40;;;10.50;99.90;;;;;;5133465;27;20624;-49
2023/05/07 05:34:44;;;;;;;43.38;30.63;;;10.50;99.90;;;;;;5133515;27;20058;-53
2023/05/07 05:37:10;;;;;;;45.10;32.10;;;10.40;99.90;;;;;;5132775;27;20038;-52
2023/05/07 05:39:36;;;;;;;42.33;30.88;;;10.20;99.90;;;;;;5097183;27;20126;-53
2023/05/07 05:42:02;;;;;;;38.60;28.65;;;10.40;99.90;;;;;;5132989;27;20137;-53
2023/05/07 05:44:28;;;;;;;38.33;30.95;;;10.40;99.90;;;;;;5133534;27;20039;-51
2023/05/07 05:46:57;;;;;;;42.90;29.45;;;10.50;99.90;;;;;;5133936;27;20757;-53
2023/05/07 05:49:23;;;;;;;37.97;29.83;;;11.60;99.90;;;;;;5133210;27;20055;-53
2023/05/07 05:51:49;;;;;;;43.00;30.98;;;10.90;99.90;;;;;;5133493;27;20062;-48
2023/05/07 05:54:15;;;;;;;39.00;30.17;;;10.60;99.90;;;;;;5135075;27;20078;-51
2023/05/07 05:56:41;;;;;;;39.95;30.95;;;10.40;99.90;;;;;;5132469;27;20126;-52
2023/05/07 05:59:07;;;;;;;38.90;29.70;;;10.40;99.90;;;;;;5115147;27;20038;-51
2023/05/07 06:01:33;;;;;;;38.17;29.88;;;10.50;99.90;;;;;;5132512;27;20528;-53
2023/05/07 06:03:58;;;;;;;36.40;28.05;;;10.60;99.90;;;;;;5133185;27;20117;-53
2023/05/07 06:06:24;;;;;;;37.58;27.90;;;10.40;99.90;;;;;;5132575;27;20079;-53
2023/05/07 06:08:50;;;;;;;37.65;27.88;;;10.70;99.90;;;;;;5132673;27;20030;-50
2023/05/07 06:11:16;;;;;;;39.47;30.27;;;10.60;99.90;;;;;;5132737;27;20034;-52
2023/05/07 06:13:41;;;;;;;35.33;26.77;;;10.50;99.90;;;;;;5133713;27;20073;-53
2023/05/07 06:16:07;;;;;;;33.78;28.25;;;10.70;99.90;;;;;;5134908;27;20138;-52
2023/05/07 06:18:35;;;;;;;33.78;27.05;;;10.80;99.90;;;;;;5131545;27;20067;-53
2023/05/07 06:21:02;;;;;;;30.58;25.88;;;10.70;99.90;;;;;;5113671;27;20071;-52
2023/05/07 06:23:27;;;;;;;33.75;26.63;;;10.80;99.90;;;;;;5130834;27;20045;-53
2023/05/07 06:25:53;;;;;;;32.75;25.88;;;10.80;99.90;;;;;;5114102;27;20039;-51
2023/05/07 06:28:19;;;;;;;29.83;24.17;;;10.90;99.90;;;;;;5133466;27;20521;-53
2023/05/07 06:30:44;;;;;;;29.83;22.98;;;10.80;99.90;;;;;;5132335;27;20395;-51
2023/05/07 06:33:10;;;;;;;33.63;25.70;;;10.90;99.90;;;;;;5134412;27;20042;-53
2023/05/07 06:35:36;;;;;;;31.40;24.73;;;11.10;99.90;;;;;;5097206;27;20090;-55
2023/05/07 06:38:02;;;;;;;28.95;24.33;;;10.90;99.90;;;;;;5132427;27;20040;-53
2023/05/07 06:40:27;;;;;;;32.33;24.23;;;10.90;99.90;;;;;;5133338;27;20038;-52
2023/05/07 06:42:53;;;;;;;31.50;24.15;;;11.20;99.90;;;;;;5133931;27;20042;-53
2023/05/07 06:45:20;;;;;;;29.95;24.13;;;11.00;99.90;;;;;;5132793;27;20506;-53
2023/05/07 06:47:45;;;;;;;29.88;24.15;;;11.00;99.90;;;;;;5134224;27;20035;-51
2023/05/07 06:50:12;;;;;;;29.65;22.65;;;11.30;99.90;;;;;;5132352;27;20394;-52
2023/05/07 06:52:37;;;;;;;27.30;21.85;;;11.10;99.90;;;;;;5133104;27;20063;-53
2023/05/07 06:55:04;;;;;;;32.42;25.20;;;11.30;99.90;;;;;;5134201;27;20042;-53
2023/05/07 06:57:29;;;;;;;29.40;23.50;;;11.20;99.90;;;;;;5114231;27;20046;-53
2023/05/07 06:59:55;;;;;;;28.77;23.55;;;11.40;99.90;;;;;;5133480;27;20035;-52
2023/05/07 07:02:21;;;;;;;26.83;22.45;;;11.20;99.90;;;;;;5133481;27;20046;-52
2023/05/07 07:04:47;;;;;;;27.73;23.58;;;11.00;99.90;;;;;;5134319;27;20410;-52
2023/05/07 07:07:13;;;;;;;29.30;23.90;;;11.00;99.90;;;;;;5132952;27;20061;-53
2023/05/07 07:09:38;;;;;;;28.90;24.17;;;11.00;99.90;;;;;;5133727;27;20141;-52
2023/05/07 07:12:04;;;;;;;29.15;24.35;;;11.10;99.90;;;;;;5133150;27;20469;-47
2023/05/07 07:14:30;;;;;;;30.73;23.98;;;11.30;99.90;;;;;;5134159;27;20043;-52
2023/05/07 07:16:56;;;;;;;30.70;24.27;;;11.20;99.90;;;;;;5115841;27;20103;-49
2023/05/07 07:19:22;;;;;;;28.88;22.30;;;11.20;99.90;;;;;;5133139;27;20054;-50
2023/05/07 07:21:47;;;;;;;28.35;23.40;;;11.10;99.90;;;;;;5133047;27;20039;-49
2023/05/07 07:24:18;;;;;;;29.75;23.88;;;11.30;99.90;;;;;;5134044;27;20046;-50
2023/05/07 07:26:45;;;;;;;30.88;24.88;;;11.10;99.90;;;;;;5133111;27;20042;-50
2023/05/07 07:29:10;;;;;;;27.88;23.50;;;11.20;99.90;;;;;;5133111;27;20047;-47
2023/05/07 07:31:36;;;;;;;28.65;24.38;;;11.30;99.90;;;;;;5132950;27;20373;-47
2023/05/07 07:34:02;;;;;;;28.13;22.88;;;11.20;99.90;;;;;;5131698;27;20053;-49
2023/05/07 07:36:28;;;;;;;27.45;22.33;;;11.20;99.90;;;;;;5114447;27;20307;-51
2023/05/07 07:38:54;;;;;;;27.08;22.27;;;11.30;99.90;;;;;;5113380;27;20098;-51
2023/05/07 07:41:19;;;;;;;28.35;23.45;;;11.30;99.90;;;;;;5113231;27;20523;-52
2023/05/07 07:43:46;;;;;;;28.60;23.10;;;11.20;99.90;;;;;;5131877;27;20049;-49
2023/05/07 07:46:12;;;;;;;27.27;22.02;;;11.40;99.90;;;;;;5134094;27;20126;-51
2023/05/07 07:48:38;;;;;;;30.75;23.60;;;11.40;99.90;;;;;;5115964;27;20054;-48
2023/05/07 07:51:04;;;;;;;26.10;22.35;;;11.30;99.90;;;;;;5136513;27;20137;-48
2023/05/07 07:53:30;;;;;;;26.52;22.10;;;11.50;99.90;;;;;;5135776;27;20414;-49
2023/05/07 07:55:56;;;;;;;28.80;23.73;;;11.40;99.90;;;;;;5137061;27;20031;-48
2023/05/07 07:58:22;;;;;;;30.75;24.25;;;11.60;99.90;;;;;;5136414;27;20042;-50
2023/05/07 08:00:48;;;;;;;29.52;22.73;;;11.40;99.90;;;;;;5136170;27;20049;-52
2023/05/07 08:03:16;;;;;;;29.88;23.52;;;11.50;99.90;;;;;;5135993;27;20051;-49
2023/05/07 08:05:42;;;;;;;30.17;24.23;;;11.50;99.90;;;;;;5117282;27;20184;-48
2023/05/07 08:08:08;;;;;;;26.15;22.80;;;11.50;99.90;;;;;;5136323;27;20810;-48
2023/05/07 08:10:38;;;;;;;27.80;22.85;;;11.60;99.90;;;;;;5118330;27;20039;-49
2023/05/07 08:13:04;;;;;;;29.40;22.98;;;11.80;99.90;;;;;;5136390;27;20050;-48
2023/05/07 08:15:30;;;;;;;30.85;23.65;;;11.90;99.90;;;;;;5135528;27;20038;-49
2023/05/07 08:17:57;;;;;;;29.13;23.60;;;11.80;99.90;;;;;;5137794;27;20061;-51
2023/05/07 08:20:23;;;;;;;31.85;24.55;;;11.80;99.90;;;;;;5136205;27;20041;-50
2023/05/07 08:22:49;;;;;;;29.80;23.67;;;11.80;99.90;;;;;;5135558;27;20320;-51
2023/05/07 08:25:15;;;;;;;30.35;23.52;;;11.90;99.90;;;;;;5135231;27;20593;-50
2023/05/07 08:27:40;;;;;;;29.15;24.23;;;12.00;99.90;;;;;;5136884;27;20038;-48
2023/05/07 08:30:07;;;;;;;28.35;23.52;;;14.10;99.90;;;;;;5109319;27;20125;-49
2023/05/07 08:32:33;;;;;;;31.13;23.08;;;12.20;99.90;;;;;;5135032;27;20432;-52
2023/05/07 08:34:59;;;;;;;27.33;23.25;;;12.50;99.90;;;;;;5135244;27;20107;-52
2023/05/07 08:37:25;;;;;;;31.40;23.80;;;12.50;99.90;;;;;;5136377;27;20740;-50
2023/05/07 08:39:50;;;;;;;30.50;23.98;;;12.70;99.90;;;;;;5135746;27;20073;-50
2023/05/07 08:42:17;;;;;;;26.77;22.42;;;12.50;99.90;;;;;;5134476;27;20075;-52
2023/05/07 08:44:48;;;;;;;28.02;23.55;;;12.80;99.90;;;;;;5135451;27;20053;-52
2023/05/07 08:47:14;;;;;;;28.75;22.80;;;11.70;99.90;;;;;;5136805;27;20481;-52
2023/05/07 08:49:40;;;;;;;28.60;23.85;;;12.80;99.90;;;;;;5136545;27;20337;-52
2023/05/07 08:52:06;;;;;;;30.23;23.45;;;12.80;99.90;;;;;;5134797;27;20050;-51
2023/05/07 08:54:32;;;;;;;29.98;23.02;;;12.60;99.90;;;;;;5136089;27;20070;-50
2023/05/07 08:56:57;;;;;;;25.98;23.13;;;12.50;99.90;;;;;;5135547;27;20063;-51
2023/05/07 08:59:23;;;;;;;29.80;24.27;;;12.50;99.90;;;;;;5133804;27;20171;-50
2023/05/07 09:01:49;;;;;;;28.70;22.98;;;12.60;99.90;;;;;;5135544;27;20744;-52
2023/05/07 09:04:15;;;;;;;28.90;22.75;;;12.60;99.90;;;;;;5135481;27;20647;-51
2023/05/07 09:06:41;;;;;;;28.70;24.73;;;12.80;99.90;;;;;;5136534;27;20039;-48
2023/05/07 09:09:07;;;;;;;28.13;24.23;;;12.80;99.90;;;;;;5136173;27;20120;-52
2023/05/07 09:11:33;;;;;;;28.75;23.98;;;12.90;99.90;;;;;;5135263;27;20065;-49
2023/05/07 09:14:02;;;;;;;26.38;23.05;;;13.20;99.90;;;;;;5134656;27;20059;-50
2023/05/07 09:16:30;;;;;;;30.30;24.13;;;13.20;99.90;;;;;;5135191;27;20122;-51
2023/05/07 09:18:59;;;;;;;27.30;21.77;;;13.40;99.90;;;;;;5135080;27;20027;-50
2023/05/07 09:21:25;;;;;;;27.88;21.40;;;13.50;99.90;;;;;;5134404;27;20866;-50
2023/05/07 09:23:53;;;;;;;31.10;24.63;;;13.60;99.90;;;;;;5104863;27;20134;-49
2023/05/07 09:26:22;;;;;;;28.45;22.50;;;13.50;99.90;;;;;;5135308;27;20092;-52
2023/05/07 09:28:47;;;;;;;27.50;22.85;;;13.50;99.90;;;;;;5134835;27;20571;-48
2023/05/07 09:31:13;;;;;;;23.48;20.92;;;13.70;99.90;;;;;;5133871;27;20043;-50
2023/05/07 09:33:40;;;;;;;26.70;22.20;;;13.80;99.90;;;;;;5132841;27;20054;-49
2023/05/07 09:36:07;;;;;;;25.90;20.48;;;13.70;99.90;;;;;;5135438;27;20051;-52
2023/05/07 09:38:33;;;;;;;27.05;22.20;;;14.10;99.90;;;;;;5135242;27;20444;-48
2023/05/07 09:41:06;;;;;;;25.30;21.50;;;14.10;99.90;;;;;;5134427;27;20067;-49
2023/05/07 09:43:34;;;;;;;24.90;22.02;;;14.20;99.90;;;;;;5134101;27;20042;-48
2023/05/07 09:46:13;;;;;;;24.75;21.83;;;14.20;99.90;;;;;;5134442;27;20121;-52
2023/05/07 09:48:40;;;;;;;24.58;20.17;;;14.10;99.90;;;;;;5136642;27;21352;-51
2023/05/07 09:51:26;;;;;;;24.58;21.65;;;14.40;99.90;;;;;;5134578;27;20045;-49
2023/05/07 09:53:53;;;;;;;24.30;21.60;;;14.60;99.90;;;;;;5135667;27;20038;-47
2023/05/07 09:56:19;;;;;;;22.98;20.45;;;14.90;99.90;;;;;;5133702;27;20046;-50
2023/05/07 09:58:46;;;;;;;23.20;20.70;;;14.30;99.90;;;;;;5134864;27;20423;-48
2023/05/07 10:01:12;;;;;;;26.27;19.88;;;15.00;99.90;;;;;;5134979;27;20035;-50
2023/05/07 10:03:42;;;;;;;23.65;19.55;;;14.90;99.90;;;;;;5134449;27;20081;-49
2023/05/07 10:06:10;;;;;;;22.23;19.27;;;15.30;99.90;;;;;;5133742;27;20076;-52
2023/05/07 10:08:37;;;;;;;22.23;19.35;;;15.40;99.90;;;;;;5134137;27;20039;-50
2023/05/07 10:11:04;;;;;;;22.30;19.13;;;15.60;99.90;;;;;;5134205;27;20054;-47
2023/05/07 10:13:32;;;;;;;22.88;18.55;;;15.60;99.90;;;;;;5134227;27;20451;-46
2023/05/07 10:15:59;;;;;;;23.40;19.33;;;15.80;99.90;;;;;;5133757;27;20038;-48
2023/05/07 10:18:29;;;;;;;23.27;19.35;;;15.90;99.90;;;;;;5135915;27;20912;-48
2023/05/07 10:20:59;;;;;;;22.95;19.13;;;15.80;99.90;;;;;;5133739;27;20082;-46
2023/05/07 10:23:26;;;;;;;21.63;19.25;;;15.70;99.90;;;;;;5133864;27;20042;-48
2023/05/07 10:25:54;;;;;;;23.63;19.77;;;15.50;99.90;;;;;;5133947;27;20205;-49
2023/05/07 10:28:23;;;;;;;22.10;19.38;;;13.50;99.90;;;;;;5134913;27;20086;-47
2023/05/07 10:31:00;;;;;;;22.48;18.00;;;15.70;99.90;;;;;;5134055;27;20073;-48
2023/05/07 10:33:28;;;;;;;21.23;18.90;;;16.00;99.90;;;;;;5133688;27;20058;-48
2023/05/07 10:35:59;;;;;;;20.60;18.15;;;15.90;99.90;;;;;;5132687;27;20035;-48
2023/05/07 10:38:27;;;;;;;22.15;18.20;;;16.10;99.90;;;;;;5132439;27;20050;-50
2023/05/07 10:40:53;;;;;;;20.08;17.90;;;16.20;99.90;;;;;;5115458;27;20043;-46
2023/05/07 10:43:19;;;;;;;20.90;17.95;;;16.40;99.90;;;;;;5113927;27;20035;-48
2023/05/07 10:46:17;;;;;;;21.77;18.42;;;16.30;99.90;;;;;;5133691;27;20399;-49
2023/05/07 10:49:05;;;;;;;21.98;18.15;;;16.20;99.90;;;;;;5133744;27;20410;-48
2023/05/07 10:51:32;;;;;;;20.30;18.10;;;16.20;99.90;;;;;;5132782;27;20054;-47
2023/05/07 10:54:18;;;;;;;20.63;18.48;;;16.20;99.90;;;;;;5132553;27;20031;-48
2023/05/07 10:56:44;;;;;;;21.25;18.80;;;16.00;99.90;;;;;;5133465;27;20038;-50
2023/05/07 10:59:23;;;;;;;21.85;17.95;;;16.00;99.90;;;;;;5132765;27;20050;-51
2023/05/07 11:01:54;;;;;;;19.90;17.48;;;16.20;99.90;;;;;;5132333;27;20646;-49
2023/05/07 11:04:25;;;;;;;21.00;18.02;;;16.40;99.90;;;;;;5112442;27;20478;-47
2023/05/07 11:07:09;;;;;;;20.98;18.67;;;16.50;99.90;;;;;;5133226;27;20046;-48
2023/05/07 11:09:55;;;;;;;21.40;17.42;;;16.90;99.90;;;;;;5133718;27;20070;-51
2023/05/07 11:12:36;;;;;;;20.60;17.92;;;17.00;99.90;;;;;;5134058;27;20462;-47
2023/05/07 11:15:07;;;;;;;20.13;17.88;;;16.90;99.90;;;;;;5133320;27;20051;-47
2023/05/07 11:17:34;;;;;;;20.88;17.90;;;17.00;99.90;;;;;;5134898;27;20305;-49
2023/05/07 11:20:01;;;;;;;19.45;16.45;;;17.10;99.90;;;;;;5133699;27;20039;-49
2023/05/07 11:22:30;;;;;;;20.23;16.88;;;18.70;99.90;;;;;;5117841;27;20565;-46
2023/05/07 11:24:57;;;;;;;18.58;16.52;;;17.50;99.90;;;;;;5138347;27;20121;-49
2023/05/07 11:27:24;;;;;;;19.67;17.58;;;17.70;99.90;;;;;;5136991;27;20047;-48
2023/05/07 11:29:50;;;;;;;21.23;16.40;;;17.50;99.90;;;;;;5137155;27;20482;-50
2023/05/07 11:32:26;;;;;;;19.58;16.77;;;17.80;99.90;;;;;;5119737;27;21150;-51
2023/05/07 11:34:52;;;;;;;19.73;16.77;;;18.10;99.90;;;;;;5137623;27;20031;-51
2023/05/07 11:37:21;;;;;;;17.90;15.50;;;18.30;99.90;;;;;;5137125;27;20042;-48
2023/05/07 11:39:48;;;;;;;17.48;15.15;;;18.40;99.90;;;;;;5136751;27;20669;-48
2023/05/07 11:42:29;;;;;;;18.33;16.08;;;18.40;99.90;;;;;;5136162;27;20264;-49
2023/05/07 11:44:55;;;;;;;17.63;15.73;;;18.60;99.90;;;;;;5138439;27;20039;-51
2023/05/07 11:47:21;;;;;;;17.40;15.25;;;18.80;99.90;;;;;;5136582;27;20318;-51
2023/05/07 11:49:49;;;;;;;16.77;14.82;;;19.00;99.90;;;;;;5135751;27;20419;-48
2023/05/07 11:52:16;;;;;;;20.70;16.23;;;18.90;99.90;;;;;;5135608;27;20534;-50
2023/05/07 11:54:48;;;;;;;17.35;15.55;;;18.90;99.90;;;;;;5134485;27;20043;-48
2023/05/07 11:57:17;;;;;;;16.48;14.07;;;18.90;99.90;;;;;;5136763;27;20035;-50
2023/05/07 11:59:47;;;;;;;19.20;15.07;;;18.60;99.90;;;;;;5137805;27;20035;-48
2023/05/07 12:02:16;;;;;;;17.27;14.77;;;18.40;99.90;;;;;;5136855;27;20053;-49
2023/05/07 12:04:42;;;;;;;16.88;15.07;;;18.10;99.90;;;;;;5135882;27;20516;-49
2023/05/07 12:07:15;;;;;;;17.33;15.50;;;18.30;99.90;;;;;;5136356;27;21106;-49
2023/05/07 12:09:47;;;;;;;17.70;15.35;;;18.20;99.90;;;;;;5117292;27;20034;-51
2023/05/07 12:12:17;;;;;;;18.13;16.33;;;18.30;99.90;;;;;;5135588;27;20188;-48
2023/05/07 12:14:44;;;;;;;16.23;14.52;;;18.50;99.90;;;;;;5135050;27;20129;-50
2023/05/07 12:17:12;;;;;;;17.25;15.55;;;18.50;99.90;;;;;;5136901;27;20041;-51
2023/05/07 12:19:39;;;;;;;16.75;14.95;;;18.20;99.90;;;;;;5135825;27;20050;-52
2023/05/07 12:22:07;;;;;;;17.65;15.80;;;18.40;99.90;;;;;;5137717;27;20397;-50
2023/05/07 12:24:56;;;;;;;17.25;14.43;;;18.40;99.90;;;;;;5135640;27;20475;-51
2023/05/07 12:27:22;;;;;;;19.67;15.38;;;18.20;99.90;;;;;;5135805;27;20089;-51